Time;durP1;ratioP1;P1;durP2;ratioP2;P2;SDS_P1;SDS_P2;PMS_P1;PMS_P2;Temp;Humidity;BMP_temperature;BMP_pressure;BME280_temperature;BME280_humidity;BME280_pressure;Samples;Min_cycle;Max_cycle;Signal;HPM_P1;HPM_P2
2022/12/12 02:46:18;;;;;;;6.67;4.78;;;;;;;;;;1784933;80;28383;-68
2022/12/12 02:48:48;;;;;;;7.10;4.80;;;;;;;;;;1793987;80;21027;-67
2022/12/12 02:51:14;;;;;;;7.75;5.42;;;;;;;;;;1791505;80;22193;-68
2022/12/12 02:53:41;;;;;;;9.13;5.62;;;;;;;;;;1775799;80;20964;-67
2022/12/12 02:56:08;;;;;;;7.80;5.28;;;;;;;;;;1777486;80;21049;-67
2022/12/12 02:58:35;;;;;;;6.22;4.25;;;;;;;;;;1762740;81;21039;-68
2022/12/12 03:01:09;;;;;;;8.93;4.53;;;;;;;;;;1763130;80;21054;-67
2022/12/12 03:09:17;;;;;;;5.28;3.87;;;;;;;;;;1773738;79;21530;-68
2022/12/12 03:11:51;;;;;;;5.67;4.35;;;;;;;;;;1791813;80;21586;-68
2022/12/12 03:14:19;;;;;;;5.83;4.10;;;;;;;;;;1793564;79;21070;-68
2022/12/12 03:16:49;;;;;;;6.35;4.12;;;;;;;;;;1793708;79;21007;-68
2022/12/12 03:19:34;;;;;;;6.40;4.47;;;;;;;;;;1783041;80;21551;-68
2022/12/12 03:22:08;;;;;;;5.80;4.25;;;;;;;;;;1773654;80;21015;-68
2022/12/12 03:24:36;;;;;;;7.33;4.33;;;;;;;;;;1794126;80;21057;-68
2022/12/12 03:27:22;;;;;;;6.37;4.10;;;;;;;;;;1793609;80;21031;-68
2022/12/12 03:29:53;;;;;;;7.00;4.45;;;;;;;;;;1794209;80;21063;-68
2022/12/12 03:32:24;;;;;;;7.15;4.22;;;;;;;;;;1789855;80;21093;-68
2022/12/12 03:34:52;;;;;;;6.17;4.45;;;;;;;;;;1794046;80;21035;-68
2022/12/12 03:37:29;;;;;;;7.80;4.65;;;;;;;;;;1760146;80;21087;-68
2022/12/12 03:39:56;;;;;;;7.70;4.60;;;;;;;;;;1757930;81;21558;-68
2022/12/12 03:42:27;;;;;;;8.53;5.42;;;;;;;;;;1734951;81;21074;-68
2022/12/12 03:44:57;;;;;;;8.85;5.00;;;;;;;;;;1763501;80;21070;-67
2022/12/12 03:47:25;;;;;;;8.13;4.75;;;;;;;;;;1765238;81;21059;-69
2022/12/12 03:49:53;;;;;;;7.58;5.22;;;;;;;;;;1765259;80;21057;-68
2022/12/12 03:52:27;;;;;;;7.05;5.12;;;;;;;;;;1765257;81;21059;-68
2022/12/12 03:54:55;;;;;;;6.08;4.25;;;;;;;;;;1765054;81;21613;-69
2022/12/12 03:57:23;;;;;;;8.18;5.25;;;;;;;;;;1764430;81;21055;-69
2022/12/12 03:59:54;;;;;;;6.65;4.37;;;;;;;;;;1765227;81;21084;-68
2022/12/12 04:02:28;;;;;;;7.92;4.87;;;;;;;;;;1764180;81;21140;-68
2022/12/12 04:05:14;;;;;;;8.05;4.95;;;;;;;;;;1765282;81;21146;-69
2022/12/12 04:07:45;;;;;;;7.42;4.78;;;;;;;;;;1759635;81;21057;-69
2022/12/12 04:13:09;;;;;;;7.28;5.10;;;;;;;;;;1744935;81;21065;-69
2022/12/12 04:15:52;;;;;;;9.70;5.20;;;;;;;;;;1778601;80;21062;-68
2022/12/12 04:18:20;;;;;;;10.78;5.67;;;;;;;;;;1778603;81;21564;-68
2022/12/12 04:23:40;;;;;;;9.85;5.30;;;;;;;;;;1768180;81;21629;-68
2022/12/12 04:28:57;;;;;;;9.60;5.50;;;;;;;;;;1765132;81;21676;-69
2022/12/12 04:31:24;;;;;;;9.08;5.47;;;;;;;;;;1751222;81;21038;-68
2022/12/12 04:33:50;;;;;;;9.30;4.90;;;;;;;;;;1766264;80;21079;-69
2022/12/12 04:36:18;;;;;;;8.25;5.05;;;;;;;;;;1773630;81;21066;-68
2022/12/12 04:38:45;;;;;;;8.38;4.95;;;;;;;;;;1782398;81;20951;-67
2022/12/12 04:41:11;;;;;;;8.53;5.12;;;;;;;;;;1783096;80;21007;-68
2022/12/12 04:43:37;;;;;;;9.33;5.87;;;;;;;;;;1773132;81;21085;-68
2022/12/12 04:46:07;;;;;;;8.48;5.10;;;;;;;;;;1766534;80;21562;-68
2022/12/12 04:48:40;;;;;;;13.53;6.55;;;;;;;;;;1765174;80;21538;-68
2022/12/12 04:51:06;;;;;;;11.20;6.72;;;;;;;;;;1771747;80;21022;-68
2022/12/12 04:53:33;;;;;;;11.55;7.72;;;;;;;;;;1740627;81;21038;-68
2022/12/12 04:56:00;;;;;;;10.78;6.37;;;;;;;;;;1761760;80;21592;-68
2022/12/12 04:58:26;;;;;;;9.93;5.67;;;;;;;;;;1761919;81;21108;-68
2022/12/12 05:00:54;;;;;;;8.65;5.60;;;;;;;;;;1766098;80;21513;-68
2022/12/12 05:03:25;;;;;;;8.58;5.67;;;;;;;;;;1764580;80;21003;-68
2022/12/12 05:05:52;;;;;;;8.43;5.50;;;;;;;;;;1760080;81;21055;-68
2022/12/12 05:08:29;;;;;;;9.65;4.87;;;;;;;;;;1759102;81;21102;-68
2022/12/12 05:10:58;;;;;;;8.85;5.22;;;;;;;;;;1749802;81;21047;-68
2022/12/12 05:13:26;;;;;;;8.70;4.75;;;;;;;;;;1764078;80;20964;-68
2022/12/12 05:15:52;;;;;;;7.92;4.92;;;;;;;;;;1769049;81;21043;-68
2022/12/12 05:18:18;;;;;;;8.50;5.08;;;;;;;;;;1765827;81;21107;-69
2022/12/12 05:20:44;;;;;;;7.10;4.65;;;;;;;;;;1768571;81;21054;-68
2022/12/12 05:23:10;;;;;;;8.15;4.50;;;;;;;;;;1772203;79;21530;-69
2022/12/12 05:25:36;;;;;;;7.95;4.70;;;;;;;;;;1773251;81;20967;-69
2022/12/12 05:28:02;;;;;;;7.42;4.05;;;;;;;;;;1771339;81;20995;-70
2022/12/12 05:30:28;;;;;;;9.20;4.70;;;;;;;;;;1774853;79;21505;-69
2022/12/12 05:32:55;;;;;;;8.78;4.90;;;;;;;;;;1771563;81;21554;-69
2022/12/12 05:35:21;;;;;;;10.10;4.87;;;;;;;;;;1769935;79;21063;-69
2022/12/12 05:37:47;;;;;;;10.78;5.05;;;;;;;;;;1763497;80;21012;-69
2022/12/12 05:40:15;;;;;;;12.07;5.17;;;;;;;;;;1756766;80;21046;-70
2022/12/12 05:42:41;;;;;;;12.18;4.90;;;;;;;;;;1756019;81;21013;-70
2022/12/12 05:45:07;;;;;;;7.05;4.87;;;;;;;;;;1752816;81;21144;-69
2022/12/12 05:47:33;;;;;;;8.30;4.80;;;;;;;;;;1739628;82;21617;-70
2022/12/12 05:50:00;;;;;;;10.00;4.85;;;;;;;;;;1747104;81;21586;-69
2022/12/12 05:52:27;;;;;;;11.85;6.80;;;;;;;;;;1739626;82;21086;-71
2022/12/12 05:54:53;;;;;;;8.55;4.65;;;;;;;;;;1734266;82;21130;-69
2022/12/12 05:57:18;;;;;;;7.58;4.35;;;;;;;;;;1733806;82;21561;-69
2022/12/12 05:59:45;;;;;;;6.75;4.40;;;;;;;;;;1721024;82;21066;-69
2022/12/12 06:02:11;;;;;;;8.10;4.65;;;;;;;;;;1725468;82;21040;-70
2022/12/12 06:04:38;;;;;;;7.78;4.20;;;;;;;;;;1723420;82;21082;-69
2022/12/12 06:07:04;;;;;;;8.85;5.08;;;;;;;;;;1738629;81;21091;-69
2022/12/12 06:09:31;;;;;;;7.40;4.85;;;;;;;;;;1742239;81;21082;-69
2022/12/12 06:11:57;;;;;;;9.73;5.25;;;;;;;;;;1750850;81;20990;-70
2022/12/12 06:14:24;;;;;;;9.03;5.00;;;;;;;;;;1765448;81;21042;-70
2022/12/12 06:16:51;;;;;;;11.30;6.15;;;;;;;;;;1749622;81;21014;-70
2022/12/12 06:19:17;;;;;;;8.20;4.62;;;;;;;;;;1750343;81;20967;-70
2022/12/12 06:21:43;;;;;;;8.23;4.78;;;;;;;;;;1763035;81;20963;-71
2022/12/12 06:24:09;;;;;;;13.15;6.87;;;;;;;;;;1742964;81;21014;-70
2022/12/12 06:26:35;;;;;;;12.75;6.03;;;;;;;;;;1741631;82;21014;-71
2022/12/12 06:29:01;;;;;;;12.43;6.78;;;;;;;;;;1745650;81;21022;-70
2022/12/12 06:31:27;;;;;;;11.18;6.35;;;;;;;;;;1769934;80;21026;-72
2022/12/12 06:33:53;;;;;;;10.48;5.60;;;;;;;;;;1742971;80;21104;-71
2022/12/12 06:36:23;;;;;;;11.65;6.12;;;;;;;;;;1742207;82;21101;-70
2022/12/12 06:38:50;;;;;;;9.33;5.50;;;;;;;;;;1744955;81;21086;-71
2022/12/12 06:41:17;;;;;;;10.63;6.37;;;;;;;;;;1735036;82;21019;-72
2022/12/12 06:43:43;;;;;;;12.58;7.00;;;;;;;;;;1735994;82;21052;-71
2022/12/12 06:46:13;;;;;;;9.28;5.75;;;;;;;;;;1742906;80;21065;-72
2022/12/12 06:48:39;;;;;;;11.05;6.00;;;;;;;;;;1745888;82;21070;-72
2022/12/12 06:51:06;;;;;;;10.10;5.83;;;;;;;;;;1752269;82;21035;-72
2022/12/12 06:53:32;;;;;;;14.15;6.30;;;;;;;;;;1749281;81;21050;-72
2022/12/12 06:55:58;;;;;;;11.55;6.33;;;;;;;;;;1749801;82;21015;-72
2022/12/12 06:58:24;;;;;;;10.20;5.92;;;;;;;;;;1746274;80;21017;-73
2022/12/12 07:00:51;;;;;;;9.53;5.53;;;;;;;;;;1736983;80;20998;-74
2022/12/12 07:03:17;;;;;;;8.83;5.72;;;;;;;;;;1750408;80;21581;-73
2022/12/12 07:05:44;;;;;;;11.73;6.03;;;;;;;;;;1751742;82;20992;-72
2022/12/12 07:08:10;;;;;;;9.13;5.33;;;;;;;;;;1751342;82;21051;-72
2022/12/12 07:10:37;;;;;;;11.63;6.22;;;;;;;;;;1748083;80;21083;-72
2022/12/12 07:13:03;;;;;;;13.50;5.97;;;;;;;;;;1746185;80;21352;-73
2022/12/12 07:15:30;;;;;;;9.53;5.55;;;;;;;;;;1744283;82;21073;-73
2022/12/12 07:17:56;;;;;;;11.18;6.05;;;;;;;;;;1735513;80;21569;-73
2022/12/12 07:20:22;;;;;;;12.93;6.47;;;;;;;;;;1752519;82;21610;-73
2022/12/12 07:22:48;;;;;;;10.80;6.12;;;;;;;;;;1751365;80;21164;-72
2022/12/12 07:25:14;;;;;;;10.75;6.37;;;;;;;;;;1749018;80;21007;-73
2022/12/12 07:27:41;;;;;;;10.00;5.60;;;;;;;;;;1744439;80;21007;-72
2022/12/12 08:14:45;;;;;;;15.15;8.00;;;;;;;;;;1723062;82;28298;-76
2022/12/12 08:17:13;;;;;;;11.95;7.25;;;;;;;;;;1688829;83;21611;-76
2022/12/12 08:19:40;;;;;;;16.55;8.35;;;;;;;;;;1683005;83;21286;-76
2022/12/12 08:22:07;;;;;;;16.75;8.40;;;;;;;;;;1689661;83;21013;-76
2022/12/12 08:24:34;;;;;;;16.25;8.25;;;;;;;;;;1692508;85;21111;-75
2022/12/12 08:27:00;;;;;;;18.15;9.33;;;;;;;;;;1681742;83;21544;-75
2022/12/12 08:29:26;;;;;;;15.85;9.28;;;;;;;;;;1688072;83;21599;-74
2022/12/12 08:31:53;;;;;;;14.93;8.78;;;;;;;;;;1688613;83;21950;-77
2022/12/12 08:34:19;;;;;;;14.33;8.13;;;;;;;;;;1691231;83;20989;-74
2022/12/12 08:36:45;;;;;;;18.35;8.10;;;;;;;;;;1685880;83;21048;-76
2022/12/12 08:39:12;;;;;;;17.82;9.08;;;;;;;;;;1690498;83;21052;-76
2022/12/12 08:41:39;;;;;;;18.32;10.78;;;;;;;;;;1672889;83;21021;-75
2022/12/12 08:44:06;;;;;;;16.65;9.33;;;;;;;;;;1634380;87;21043;-75
2022/12/12 08:46:33;;;;;;;20.62;10.80;;;;;;;;;;1630757;87;21089;-74
2022/12/12 08:48:58;;;;;;;18.73;9.40;;;;;;;;;;1635356;87;21012;-74
2022/12/12 08:51:26;;;;;;;16.45;8.35;;;;;;;;;;1637048;87;21083;-75
2022/12/12 08:53:52;;;;;;;17.30;9.45;;;;;;;;;;1626118;87;21067;-74
2022/12/12 08:56:19;;;;;;;19.10;9.65;;;;;;;;;;1630615;87;21094;-74
2022/12/12 08:58:45;;;;;;;22.10;9.88;;;;;;;;;;1633525;87;20993;-74
2022/12/12 09:01:12;;;;;;;19.10;9.45;;;;;;;;;;1646235;85;21186;-75
2022/12/12 09:03:38;;;;;;;20.23;10.45;;;;;;;;;;1647602;87;21045;-75
2022/12/12 09:06:05;;;;;;;15.28;9.28;;;;;;;;;;1644448;86;21026;-73
2022/12/12 09:08:33;;;;;;;16.82;8.28;;;;;;;;;;1641977;86;21116;-74
2022/12/12 09:10:59;;;;;;;19.25;8.30;;;;;;;;;;1640101;87;21021;-74
2022/12/12 09:13:25;;;;;;;17.87;8.35;;;;;;;;;;1639147;87;21711;-74
2022/12/12 09:15:52;;;;;;;17.17;8.80;;;;;;;;;;1641592;87;21136;-75
2022/12/12 09:18:18;;;;;;;19.50;9.13;;;;;;;;;;1639065;87;21093;-74
2022/12/12 09:20:49;;;;;;;22.58;10.08;;;;;;;;;;1645108;86;21073;-74
2022/12/12 09:23:17;;;;;;;17.60;8.70;;;;;;;;;;1637221;86;21744;-73
2022/12/12 09:25:43;;;;;;;19.57;9.68;;;;;;;;;;1652527;86;21059;-74
2022/12/12 09:28:10;;;;;;;15.72;8.23;;;;;;;;;;1641656;86;21077;-76
2022/12/12 09:30:37;;;;;;;16.52;9.28;;;;;;;;;;1659870;84;21605;-74
2022/12/12 09:33:03;;;;;;;19.45;9.38;;;;;;;;;;1662609;85;20996;-75
2022/12/12 09:35:29;;;;;;;15.85;8.10;;;;;;;;;;1623815;88;21090;-75
2022/12/12 09:37:55;;;;;;;21.02;9.43;;;;;;;;;;1634950;87;21524;-75
2022/12/12 09:40:26;;;;;;;18.52;8.45;;;;;;;;;;1629591;86;21127;-75
2022/12/12 09:42:52;;;;;;;16.37;8.90;;;;;;;;;;1624180;86;21715;-75
2022/12/12 09:45:18;;;;;;;18.92;9.15;;;;;;;;;;1665373;85;21843;-77
2022/12/12 09:47:46;;;;;;;22.87;9.78;;;;;;;;;;1665715;85;21057;-75
2022/12/12 09:50:14;;;;;;;14.80;7.95;;;;;;;;;;1639070;85;21091;-76
2022/12/12 09:52:40;;;;;;;13.78;7.20;;;;;;;;;;1656781;85;21076;-74
2022/12/12 09:55:25;;;;;;;18.62;8.60;;;;;;;;;;1645161;86;21496;-75
2022/12/12 09:57:53;;;;;;;16.77;8.40;;;;;;;;;;1642791;86;21083;-74
2022/12/12 10:00:20;;;;;;;17.70;9.25;;;;;;;;;;1648835;85;21147;-74
2022/12/12 10:02:59;;;;;;;15.13;9.05;;;;;;;;;;1665969;86;21597;-70
2022/12/12 10:05:43;;;;;;;16.95;9.78;;;;;;;;;;1670736;84;21059;-69
2022/12/12 10:08:12;;;;;;;17.52;8.25;;;;;;;;;;1643899;86;21098;-70
2022/12/12 10:10:45;;;;;;;20.37;10.10;;;;;;;;;;1647028;85;21041;-69
2022/12/12 10:13:15;;;;;;;17.73;11.10;;;;;;;;;;1658792;85;21079;-69
2022/12/12 10:15:43;;;;;;;17.90;9.40;;;;;;;;;;1673019;84;21563;-69
2022/12/12 10:18:11;;;;;;;21.02;10.30;;;;;;;;;;1654137;85;21082;-70
2022/12/12 10:20:46;;;;;;;17.57;8.78;;;;;;;;;;1637885;86;21059;-70
2022/12/12 10:23:30;;;;;;;18.05;9.33;;;;;;;;;;1641860;86;21067;-69
2022/12/12 10:26:02;;;;;;;20.27;10.30;;;;;;;;;;1637483;86;20985;-69
2022/12/12 10:28:29;;;;;;;17.62;9.40;;;;;;;;;;1642917;86;21505;-69
2022/12/12 10:31:14;;;;;;;16.85;8.75;;;;;;;;;;1653023;85;21526;-70
2022/12/12 10:33:57;;;;;;;17.20;8.35;;;;;;;;;;1668577;84;21036;-71
2022/12/12 10:36:25;;;;;;;14.23;7.97;;;;;;;;;;1668637;86;21076;-70
2022/12/12 10:38:59;;;;;;;19.67;9.25;;;;;;;;;;1631554;86;21120;-70
2022/12/12 10:41:39;;;;;;;13.48;6.83;;;;;;;;;;1645795;86;21076;-68
2022/12/12 10:44:10;;;;;;;17.65;8.48;;;;;;;;;;1650081;86;21077;-70
2022/12/12 10:46:38;;;;;;;15.65;8.13;;;;;;;;;;1634134;86;21116;-71
2022/12/12 10:49:18;;;;;;;16.67;8.25;;;;;;;;;;1611447;87;21080;-71
2022/12/12 10:51:45;;;;;;;15.45;8.48;;;;;;;;;;1653008;86;21097;-69
2022/12/12 10:54:21;;;;;;;15.53;8.13;;;;;;;;;;1652819;86;21616;-69
2022/12/12 10:57:08;;;;;;;15.75;7.45;;;;;;;;;;1650560;86;21058;-69
2022/12/12 10:59:39;;;;;;;14.75;8.20;;;;;;;;;;1644484;85;21101;-69
2022/12/12 11:02:07;;;;;;;14.40;7.62;;;;;;;;;;1653641;86;21069;-69
2022/12/12 11:04:33;;;;;;;16.37;8.85;;;;;;;;;;1656182;86;21072;-69
2022/12/12 11:06:59;;;;;;;17.37;9.13;;;;;;;;;;1651401;85;21089;-69
2022/12/12 11:23:21;;;;;;;14.07;8.65;;;;;;;;;;1764207;80;28629;-69
2022/12/12 11:25:56;;;;;;;16.12;8.53;;;;;;;;;;1745152;81;21067;-69
2022/12/12 11:28:23;;;;;;;15.83;8.00;;;;;;;;;;1739230;81;21574;-70
2022/12/12 11:30:50;;;;;;;15.45;7.55;;;;;;;;;;1754533;81;21049;-68
2022/12/12 11:33:18;;;;;;;16.15;8.20;;;;;;;;;;1754288;81;21527;-69
2022/12/12 11:35:44;;;;;;;14.58;8.48;;;;;;;;;;1733108;81;21024;-69
2022/12/12 11:38:16;;;;;;;16.05;8.73;;;;;;;;;;1731417;81;21168;-68
2022/12/12 11:40:44;;;;;;;14.65;8.60;;;;;;;;;;1759373;81;21115;-69
2022/12/12 11:43:27;;;;;;;15.60;8.00;;;;;;;;;;1736475;81;21526;-69
2022/12/12 11:45:57;;;;;;;11.70;6.87;;;;;;;;;;1738532;81;21032;-68
2022/12/12 11:48:34;;;;;;;14.25;7.45;;;;;;;;;;1737287;81;21075;-69
2022/12/12 11:51:01;;;;;;;12.73;6.85;;;;;;;;;;1734298;81;21044;-67
2022/12/12 11:53:27;;;;;;;12.33;6.42;;;;;;;;;;1736416;81;21528;-68
2022/12/12 11:55:58;;;;;;;13.03;6.53;;;;;;;;;;1730401;81;21021;-68
2022/12/12 11:58:31;;;;;;;11.90;6.62;;;;;;;;;;1731780;81;21013;-68
2022/12/12 12:01:08;;;;;;;13.80;7.53;;;;;;;;;;1732517;81;21076;-72
2022/12/12 12:03:42;;;;;;;13.88;7.30;;;;;;;;;;1763956;80;21036;-67
2022/12/12 12:06:27;;;;;;;13.85;7.53;;;;;;;;;;1728371;82;21048;-72
2022/12/12 12:09:07;;;;;;;13.35;8.00;;;;;;;;;;1758427;81;21013;-71
2022/12/12 12:11:39;;;;;;;12.07;7.42;;;;;;;;;;1761591;81;21119;-71
2022/12/12 12:14:22;;;;;;;14.43;8.33;;;;;;;;;;1718627;82;21167;-70
2022/12/12 12:16:53;;;;;;;11.60;6.73;;;;;;;;;;1759439;80;21063;-70
2022/12/12 12:19:24;;;;;;;14.95;8.95;;;;;;;;;;1773435;80;21024;-69
2022/12/12 12:21:54;;;;;;;14.98;7.67;;;;;;;;;;1749692;81;21048;-69
2022/12/12 12:24:35;;;;;;;13.65;7.47;;;;;;;;;;1722256;82;21066;-69
2022/12/12 12:27:06;;;;;;;16.15;7.92;;;;;;;;;;1763330;80;22378;-71
2022/12/12 12:29:34;;;;;;;13.90;7.12;;;;;;;;;;1737663;81;20996;-68
2022/12/12 12:32:02;;;;;;;18.40;8.93;;;;;;;;;;1726525;81;22110;-70
2022/12/12 12:34:34;;;;;;;13.03;6.53;;;;;;;;;;1753226;80;21532;-69
2022/12/12 12:37:05;;;;;;;13.30;7.47;;;;;;;;;;1735045;82;21048;-69
2022/12/12 12:39:33;;;;;;;13.83;7.15;;;;;;;;;;1770810;80;21539;-72
2022/12/12 12:42:18;;;;;;;12.35;6.58;;;;;;;;;;1772323;80;20993;-72
2022/12/12 12:44:52;;;;;;;10.03;5.85;;;;;;;;;;1748441;81;21032;-71
2022/12/12 12:47:23;;;;;;;10.95;5.70;;;;;;;;;;1768213;80;21028;-73
2022/12/12 12:49:54;;;;;;;12.25;6.25;;;;;;;;;;1770486;80;21008;-71
2022/12/12 12:52:24;;;;;;;11.83;6.83;;;;;;;;;;1761372;80;21010;-74
2022/12/12 12:54:51;;;;;;;14.68;6.97;;;;;;;;;;1783738;80;21044;-72
2022/12/12 12:57:24;;;;;;;13.22;7.03;;;;;;;;;;1764876;80;21003;-72
2022/12/12 12:59:52;;;;;;;13.78;6.85;;;;;;;;;;1779445;80;21008;-71
2022/12/12 13:02:22;;;;;;;13.20;6.78;;;;;;;;;;1775918;80;21141;-73
2022/12/12 13:04:56;;;;;;;11.45;5.92;;;;;;;;;;1760753;79;22155;-72
2022/12/12 13:07:36;;;;;;;11.38;6.58;;;;;;;;;;1733279;80;21974;-74
2022/12/12 13:10:04;;;;;;;12.60;5.62;;;;;;;;;;1737218;80;21040;-71
2022/12/12 13:12:35;;;;;;;8.83;5.28;;;;;;;;;;1757734;80;21007;-70
2022/12/12 13:15:03;;;;;;;11.20;6.33;;;;;;;;;;1742893;81;21009;-71
2022/12/12 13:17:44;;;;;;;13.68;6.83;;;;;;;;;;1756767;80;21460;-71
2022/12/12 13:20:18;;;;;;;14.13;7.15;;;;;;;;;;1747242;81;21012;-72
2022/12/12 13:22:49;;;;;;;11.60;6.22;;;;;;;;;;1734851;80;21112;-72
2022/12/12 13:25:34;;;;;;;11.53;6.42;;;;;;;;;;1739086;80;21040;-71
2022/12/12 13:28:01;;;;;;;12.68;7.08;;;;;;;;;;1735699;80;21069;-72
2022/12/12 13:30:29;;;;;;;14.23;6.85;;;;;;;;;;1749046;80;21044;-72
2022/12/12 13:33:16;;;;;;;12.03;6.65;;;;;;;;;;1744375;80;21104;-71
2022/12/12 13:35:44;;;;;;;11.22;6.75;;;;;;;;;;1746234;81;21072;-72
2022/12/12 13:38:19;;;;;;;11.35;6.40;;;;;;;;;;1753514;80;20925;-71
2022/12/12 13:40:47;;;;;;;13.75;6.97;;;;;;;;;;1738209;80;21017;-71
2022/12/12 13:43:34;;;;;;;12.00;6.78;;;;;;;;;;1741946;82;21468;-70
2022/12/12 13:46:02;;;;;;;13.58;7.03;;;;;;;;;;1739646;81;22198;-70
2022/12/12 13:48:30;;;;;;;14.35;7.47;;;;;;;;;;1737701;80;21307;-71
2022/12/12 13:51:14;;;;;;;13.65;7.47;;;;;;;;;;1739232;81;21073;-70
2022/12/12 13:53:41;;;;;;;13.60;7.03;;;;;;;;;;1733056;81;21035;-71
2022/12/12 13:56:26;;;;;;;10.72;6.70;;;;;;;;;;1753321;81;21553;-72
2022/12/12 13:58:53;;;;;;;12.07;6.70;;;;;;;;;;1739595;81;21069;-73
2022/12/12 14:01:29;;;;;;;16.95;8.90;;;;;;;;;;1741928;81;21663;-70
2022/12/12 14:03:55;;;;;;;17.37;9.85;;;;;;;;;;1772205;80;21035;-72
2022/12/12 14:06:23;;;;;;;12.35;7.33;;;;;;;;;;1767127;81;21497;-71
2022/12/12 14:08:49;;;;;;;13.85;7.47;;;;;;;;;;1736249;82;21028;-71
2022/12/12 14:11:26;;;;;;;12.55;7.08;;;;;;;;;;1719259;82;20988;-70
2022/12/12 14:14:04;;;;;;;14.93;7.97;;;;;;;;;;1742615;80;21586;-72
2022/12/12 14:16:31;;;;;;;13.80;7.37;;;;;;;;;;1761090;80;21056;-71
2022/12/12 14:19:03;;;;;;;12.90;6.92;;;;;;;;;;1754353;82;21042;-70
2022/12/12 14:21:40;;;;;;;13.55;7.95;;;;;;;;;;1736281;81;21051;-72
2022/12/12 14:24:25;;;;;;;14.30;6.72;;;;;;;;;;1762912;81;20997;-72
2022/12/12 14:26:51;;;;;;;15.48;7.95;;;;;;;;;;1758360;81;21101;-72
2022/12/12 14:29:19;;;;;;;14.40;8.08;;;;;;;;;;1754170;82;21045;-72
2022/12/12 14:31:53;;;;;;;15.13;7.95;;;;;;;;;;1718497;82;20995;-72
2022/12/12 14:34:27;;;;;;;23.67;11.38;;;;;;;;;;1742992;80;21024;-72
2022/12/12 14:37:07;;;;;;;17.82;9.70;;;;;;;;;;1734457;81;21038;-72
2022/12/12 14:39:35;;;;;;;14.45;8.73;;;;;;;;;;1755188;82;21063;-72
2022/12/12 14:42:02;;;;;;;16.70;8.88;;;;;;;;;;1775180;80;21472;-70
2022/12/12 14:44:28;;;;;;;14.38;9.15;;;;;;;;;;1770727;79;21032;-72
2022/12/12 14:46:58;;;;;;;16.30;8.78;;;;;;;;;;1732360;81;21092;-72
2022/12/12 14:49:24;;;;;;;17.37;8.90;;;;;;;;;;1759969;79;21107;-72
2022/12/12 14:51:52;;;;;;;16.02;9.30;;;;;;;;;;1746030;80;22629;-72
2022/12/12 14:54:19;;;;;;;15.28;9.10;;;;;;;;;;1745335;81;21077;-69
2022/12/12 14:56:57;;;;;;;18.55;9.78;;;;;;;;;;1761204;81;21038;-70
2022/12/12 15:12:11;;;;;;;17.65;10.53;;;;;;;;;;1798524;77;22182;-66
2022/12/12 15:14:39;;;;;;;21.15;10.98;;;;;;;;;;1795396;78;21034;-68
2022/12/12 15:17:05;;;;;;;22.00;11.38;;;;;;;;;;1807801;78;21946;-69
2022/12/12 15:19:37;;;;;;;20.68;10.03;;;;;;;;;;1814251;78;21015;-69
2022/12/12 15:22:17;;;;;;;21.40;10.25;;;;;;;;;;1799974;78;21053;-68
2022/12/12 15:24:44;;;;;;;20.10;10.60;;;;;;;;;;1797600;78;21035;-69
2022/12/12 15:27:12;;;;;;;20.77;10.20;;;;;;;;;;1800011;78;22269;-70
2022/12/12 15:29:38;;;;;;;26.35;12.60;;;;;;;;;;1791859;78;21040;-70
2022/12/12 15:32:05;;;;;;;27.13;12.75;;;;;;;;;;1796067;78;21139;-69
2022/12/12 15:34:39;;;;;;;25.50;13.40;;;;;;;;;;1801240;78;21543;-69
2022/12/12 15:37:08;;;;;;;23.47;12.93;;;;;;;;;;1803866;78;21009;-68
2022/12/12 15:39:35;;;;;;;19.35;11.83;;;;;;;;;;1800035;78;21042;-69
2022/12/12 15:42:01;;;;;;;22.05;12.03;;;;;;;;;;1799776;78;21032;-69
2022/12/12 15:44:27;;;;;;;21.57;10.93;;;;;;;;;;1796502;78;21072;-69
2022/12/12 15:46:53;;;;;;;20.92;10.78;;;;;;;;;;1794716;78;21044;-69
2022/12/12 15:49:37;;;;;;;17.80;9.65;;;;;;;;;;1793922;78;21004;-69
2022/12/12 15:52:04;;;;;;;;;;;;;;;;;;1810504;78;21074;-68
2022/12/12 15:54:30;;;;;;;17.57;9.25;;;;;;;;;;1800494;78;20129;-67
2022/12/12 15:56:56;;;;;;;20.77;9.60;;;;;;;;;;1797935;78;21052;-69
2022/12/12 15:59:23;;;;;;;16.50;9.48;;;;;;;;;;1796853;78;21628;-67
2022/12/12 16:01:49;;;;;;;16.25;9.38;;;;;;;;;;1802474;78;21082;-69
2022/12/12 16:04:16;;;;;;;22.87;10.50;;;;;;;;;;1801565;78;21012;-69
2022/12/12 16:06:44;;;;;;;17.32;9.93;;;;;;;;;;1808927;78;21028;-75
2022/12/12 16:10:12;;;;;;;19.12;9.93;;;;;;;;;;1819700;77;28033;-72
2022/12/12 16:12:56;;;;;;;18.45;10.32;;;;;;;;;;1802081;78;21544;-67
2022/12/12 16:15:27;;;;;;;20.80;9.38;;;;;;;;;;1800562;78;21040;-68
2022/12/12 16:18:06;;;;;;;25.40;11.45;;;;;;;;;;1799566;78;21025;-70
2022/12/12 16:20:33;;;;;;;15.43;8.35;;;;;;;;;;1804827;78;21028;-67
2022/12/12 16:23:18;;;;;;;18.82;8.88;;;;;;;;;;1799535;78;21040;-67
2022/12/12 16:25:44;;;;;;;16.40;8.45;;;;;;;;;;1800427;78;21044;-67
2022/12/12 16:28:16;;;;;;;13.88;8.20;;;;;;;;;;1806117;78;21527;-67
2022/12/12 16:30:42;;;;;;;17.62;9.28;;;;;;;;;;1804362;78;20992;-68
2022/12/12 16:33:13;;;;;;;18.80;9.18;;;;;;;;;;1801572;78;21012;-68
2022/12/12 16:35:39;;;;;;;16.05;7.92;;;;;;;;;;1806471;78;21164;-69
2022/12/12 16:38:10;;;;;;;15.90;7.75;;;;;;;;;;1801999;78;22021;-66
2022/12/12 16:40:36;;;;;;;16.15;8.10;;;;;;;;;;1798113;78;21536;-67
2022/12/12 16:43:03;;;;;;;16.25;8.25;;;;;;;;;;1808307;78;21108;-66
2022/12/12 16:45:29;;;;;;;14.75;8.93;;;;;;;;;;1796799;78;21228;-66
2022/12/12 16:47:57;;;;;;;17.45;8.88;;;;;;;;;;1799680;78;21065;-67
2022/12/12 16:50:23;;;;;;;18.10;9.83;;;;;;;;;;1804484;78;21068;-67
2022/12/12 16:52:49;;;;;;;16.15;8.75;;;;;;;;;;1798101;78;20953;-68
2022/12/12 16:55:19;;;;;;;19.30;9.88;;;;;;;;;;1802636;78;21047;-68
2022/12/12 16:57:52;;;;;;;19.37;10.68;;;;;;;;;;1800763;78;20989;-67
2022/12/12 17:00:16;;;;;;;20.65;11.40;;;;;;;;;;1794884;78;21073;-67
2022/12/12 17:02:43;;;;;;;21.27;10.40;;;;;;;;;;1762501;80;21629;-67
2022/12/12 17:05:15;;;;;;;22.80;11.15;;;;;;;;;;1771173;80;21013;-68
2022/12/12 17:07:42;;;;;;;26.23;12.13;;;;;;;;;;1746382;80;21071;-68
2022/12/12 17:10:09;;;;;;;23.42;12.50;;;;;;;;;;1731995;81;21056;-69
2022/12/12 17:12:38;;;;;;;22.27;12.55;;;;;;;;;;1782492;80;21022;-69
2022/12/12 17:15:06;;;;;;;28.57;13.93;;;;;;;;;;1766184;80;21064;-68
2022/12/12 17:17:32;;;;;;;23.77;13.05;;;;;;;;;;1784280;80;21504;-67
2022/12/12 17:19:59;;;;;;;28.35;14.85;;;;;;;;;;1770405;79;21085;-67
2022/12/12 17:22:25;;;;;;;30.40;13.88;;;;;;;;;;1782263;79;20993;-68
2022/12/12 17:24:51;;;;;;;25.37;13.98;;;;;;;;;;1776678;79;22259;-68
2022/12/12 17:27:17;;;;;;;31.10;15.53;;;;;;;;;;1772867;80;21033;-69
2022/12/12 17:29:44;;;;;;;32.50;15.63;;;;;;;;;;1772382;80;21074;-70
2022/12/12 17:32:10;;;;;;;38.98;20.62;;;;;;;;;;1767838;80;21522;-69
2022/12/12 17:34:36;;;;;;;31.80;16.37;;;;;;;;;;1773063;80;21032;-69
2022/12/12 17:37:02;;;;;;;32.45;17.50;;;;;;;;;;1771691;80;21104;-68
2022/12/12 17:39:29;;;;;;;29.12;15.03;;;;;;;;;;1742010;80;21486;-68
2022/12/12 17:41:55;;;;;;;26.65;12.82;;;;;;;;;;1773362;79;21474;-68
2022/12/12 17:44:22;;;;;;;27.50;14.30;;;;;;;;;;1768219;80;20991;-68
2022/12/12 17:46:48;;;;;;;27.87;13.40;;;;;;;;;;1768168;79;21040;-68
2022/12/12 17:49:15;;;;;;;24.63;12.05;;;;;;;;;;1770648;80;20980;-69
2022/12/12 17:51:41;;;;;;;26.65;13.65;;;;;;;;;;1772429;80;21568;-68
2022/12/12 17:54:07;;;;;;;24.02;13.13;;;;;;;;;;1774342;80;21044;-68
2022/12/12 17:56:34;;;;;;;34.67;18.60;;;;;;;;;;1779130;80;21092;-68
2022/12/12 17:59:04;;;;;;;49.05;25.23;;;;;;;;;;1771785;80;21054;-70
2022/12/12 18:01:30;;;;;;;41.63;19.25;;;;;;;;;;1772801;79;21125;-68
2022/12/12 18:03:58;;;;;;;33.92;15.88;;;;;;;;;;1770753;80;21070;-67
2022/12/12 18:06:25;;;;;;;36.53;14.87;;;;;;;;;;1774204;80;21060;-67
2022/12/12 18:08:51;;;;;;;35.35;16.35;;;;;;;;;;1775315;79;21568;-67
2022/12/12 18:11:19;;;;;;;33.15;15.53;;;;;;;;;;1791534;78;21044;-68
2022/12/12 18:13:49;;;;;;;36.13;16.70;;;;;;;;;;1796416;78;21530;-67
2022/12/12 18:16:16;;;;;;;40.23;18.62;;;;;;;;;;1801458;78;21033;-68
2022/12/12 18:18:43;;;;;;;35.75;18.87;;;;;;;;;;1764118;80;21052;-67
2022/12/12 18:21:13;;;;;;;29.37;15.40;;;;;;;;;;1754327;82;21053;-67
2022/12/12 18:23:39;;;;;;;28.02;15.00;;;;;;;;;;1770282;80;20976;-68
2022/12/12 18:26:06;;;;;;;29.45;14.10;;;;;;;;;;1739384;82;21548;-67
2022/12/12 18:28:33;;;;;;;24.23;12.58;;;;;;;;;;1735001;82;21096;-67
2022/12/12 18:31:00;;;;;;;26.23;13.25;;;;;;;;;;1753247;81;21615;-67
2022/12/12 18:33:26;;;;;;;34.15;16.32;;;;;;;;;;1737077;82;21010;-68
2022/12/12 18:36:01;;;;;;;30.95;14.50;;;;;;;;;;1767019;80;21052;-68
2022/12/12 18:38:27;;;;;;;30.68;14.38;;;;;;;;;;1764739;80;21026;-67
2022/12/12 18:40:53;;;;;;;27.07;13.78;;;;;;;;;;1744789;80;21226;-67
2022/12/12 18:43:19;;;;;;;29.18;13.50;;;;;;;;;;1739204;82;21013;-68
2022/12/12 18:45:46;;;;;;;28.55;13.50;;;;;;;;;;1753066;80;21044;-67
2022/12/12 18:48:12;;;;;;;29.52;13.72;;;;;;;;;;1765334;80;21542;-67
2022/12/12 18:50:38;;;;;;;25.92;14.23;;;;;;;;;;1772153;80;21036;-68
2022/12/12 18:53:05;;;;;;;30.37;13.38;;;;;;;;;;1764378;80;21496;-67
2022/12/12 18:55:33;;;;;;;27.20;13.25;;;;;;;;;;1767429;80;21021;-66